sensor_id;sensor_type;location;lat;lon;timestamp;pressure;altitude;pressure_sealevel;temperature;humidity
40155;BME280;25875;48.202;16.334;2023-01-26T00:00:55;99802.09;;;0.75;79.73
40155;BME280;25875;48.202;16.334;2023-01-26T00:03:22;99800.41;;;0.69;79.79
40155;BME280;25875;48.202;16.334;2023-01-26T00:05:49;99796.91;;;0.70;80.03
40155;BME280;25875;48.202;16.334;2023-01-26T00:08:15;99796.91;;;0.73;79.87
40155;BME280;25875;48.202;16.334;2023-01-26T00:10:42;99785.59;;;0.74;79.80
40155;BME280;25875;48.202;16.334;2023-01-26T00:13:17;99793.41;;;0.76;79.67
40155;BME280;25875;48.202;16.334;2023-01-26T00:15:44;99788.19;;;0.76;79.49
40155;BME280;25875;48.202;16.334;2023-01-26T00:18:11;99790.81;;;0.71;79.62
40155;BME280;25875;48.202;16.334;2023-01-26T00:20:38;99787.38;;;0.69;79.73
40155;BME280;25875;48.202;16.334;2023-01-26T00:23:04;99785.59;;;0.73;79.74
40155;BME280;25875;48.202;16.334;2023-01-26T00:25:31;99774.25;;;0.77;79.89
40155;BME280;25875;48.202;16.334;2023-01-26T00:27:58;99782.09;;;0.77;79.70
40155;BME280;25875;48.202;16.334;2023-01-26T00:30:26;99776.88;;;0.77;79.73
40155;BME280;25875;48.202;16.334;2023-01-26T00:32:53;99780.38;;;0.73;79.77
40155;BME280;25875;48.202;16.334;2023-01-26T00:35:21;99774.34;;;0.68;79.62
40155;BME280;25875;48.202;16.334;2023-01-26T00:37:48;99773.53;;;0.61;79.98
40155;BME280;25875;48.202;16.334;2023-01-26T00:40:15;99777.03;;;0.57;80.24
40155;BME280;25875;48.202;16.334;2023-01-26T00:42:42;99775.31;;;0.54;80.32
40155;BME280;25875;48.202;16.334;2023-01-26T00:45:09;99769.19;;;0.58;80.33
40155;BME280;25875;48.202;16.334;2023-01-26T00:47:37;99764.00;;;0.57;80.21
40155;BME280;25875;48.202;16.334;2023-01-26T00:50:04;99763.13;;;0.56;80.35
40155;BME280;25875;48.202;16.334;2023-01-26T00:52:31;99757.06;;;0.53;80.42
40155;BME280;25875;48.202;16.334;2023-01-26T00:54:58;99749.25;;;0.53;80.23
40155;BME280;25875;48.202;16.334;2023-01-26T00:57:26;99756.22;;;0.51;80.37
40155;BME280;25875;48.202;16.334;2023-01-26T00:59:53;99754.47;;;0.50;80.25
40155;BME280;25875;48.202;16.334;2023-01-26T01:02:20;99751.91;;;0.47;80.47
40155;BME280;25875;48.202;16.334;2023-01-26T01:04:48;99751.03;;;0.48;80.58
40155;BME280;25875;48.202;16.334;2023-01-26T01:07:15;99755.34;;;0.52;80.77
40155;BME280;25875;48.202;16.334;2023-01-26T01:09:41;99746.66;;;0.50;80.72
40155;BME280;25875;48.202;16.334;2023-01-26T01:12:08;99755.38;;;0.47;80.93
40155;BME280;25875;48.202;16.334;2023-01-26T01:14:35;99744.09;;;0.47;80.54
40155;BME280;25875;48.202;16.334;2023-01-26T01:17:02;99740.59;;;0.46;80.61
40155;BME280;25875;48.202;16.334;2023-01-26T01:19:29;99739.69;;;0.52;80.38
40155;BME280;25875;48.202;16.334;2023-01-26T01:21:57;99732.69;;;0.58;80.34
40155;BME280;25875;48.202;16.334;2023-01-26T01:24:24;99727.44;;;0.60;80.31
40155;BME280;25875;48.202;16.334;2023-01-26T01:26:51;99727.41;;;0.63;80.43
40155;BME280;25875;48.202;16.334;2023-01-26T01:29:17;99724.78;;;0.66;80.12
40155;BME280;25875;48.202;16.334;2023-01-26T01:31:44;99722.16;;;0.68;80.05
40155;BME280;25875;48.202;16.334;2023-01-26T01:34:11;99718.63;;;0.73;79.91
40155;BME280;25875;48.202;16.334;2023-01-26T01:36:38;99715.09;;;0.77;79.76
40155;BME280;25875;48.202;16.334;2023-01-26T01:39:06;99718.56;;;0.79;79.90
40155;BME280;25875;48.202;16.334;2023-01-26T01:41:32;99720.28;;;0.80;79.83
40155;BME280;25875;48.202;16.334;2023-01-26T01:44:24;99713.34;;;0.81;80.20
40155;BME280;25875;48.202;16.334;2023-01-26T01:46:54;99715.09;;;0.79;79.71
40155;BME280;25875;48.202;16.334;2023-01-26T01:49:25;99713.34;;;0.81;79.68
40155;BME280;25875;48.202;16.334;2023-01-26T01:51:56;99464.50;;;-0.64;79.60
40155;BME280;25875;48.202;16.334;2023-01-26T01:54:29;99708.13;;;0.81;79.74
40155;BME280;25875;48.202;16.334;2023-01-26T01:57:02;99710.75;;;0.79;79.67
40155;BME280;25875;48.202;16.334;2023-01-26T01:59:41;99701.16;;;0.80;79.75
40155;BME280;25875;48.202;16.334;2023-01-26T02:02:10;99694.22;;;0.79;79.66
40155;BME280;25875;48.202;16.334;2023-01-26T02:04:37;99669.19;;;0.61;79.62
40155;BME280;25875;48.202;16.334;2023-01-26T02:07:04;99688.13;;;0.78;79.59
40155;BME280;25875;48.202;16.334;2023-01-26T02:09:35;99683.81;;;0.76;79.82
40155;BME280;25875;48.202;16.334;2023-01-26T02:12:22;99683.81;;;0.77;79.74
40155;BME280;25875;48.202;16.334;2023-01-26T02:14:51;99678.56;;;0.80;79.74
40155;BME280;25875;48.202;16.334;2023-01-26T02:17:18;99675.03;;;0.84;79.54
40155;BME280;25875;48.202;16.334;2023-01-26T02:19:49;99674.16;;;0.84;79.46
40155;BME280;25875;48.202;16.334;2023-01-26T02:22:25;99663.72;;;0.84;79.74
40155;BME280;25875;48.202;16.334;2023-01-26T02:24:58;99660.22;;;0.85;79.53
40155;BME280;25875;48.202;16.334;2023-01-26T02:27:31;99657.59;;;0.86;79.44
40155;BME280;25875;48.202;16.334;2023-01-26T02:29:59;99656.75;;;0.84;79.64
40155;BME280;25875;48.202;16.334;2023-01-26T02:32:27;99655.94;;;0.79;79.76
40155;BME280;25875;48.202;16.334;2023-01-26T02:34:57;99648.13;;;0.79;79.75
40155;BME280;25875;48.202;16.334;2023-01-26T02:37:23;99660.28;;;0.82;79.67
40155;BME280;25875;48.202;16.334;2023-01-26T02:39:54;99645.47;;;0.82;79.92
40155;BME280;25875;48.202;16.334;2023-01-26T02:42:22;99626.47;;;0.73;79.76
40155;BME280;25875;48.202;16.334;2023-01-26T02:45:11;99646.34;;;0.81;79.71
40155;BME280;25875;48.202;16.334;2023-01-26T02:47:38;99641.16;;;0.80;79.55
40155;BME280;25875;48.202;16.334;2023-01-26T02:50:06;99637.66;;;0.81;79.64
40155;BME280;25875;48.202;16.334;2023-01-26T02:52:32;99634.19;;;0.82;79.85
40155;BME280;25875;48.202;16.334;2023-01-26T02:54:59;99631.59;;;0.80;79.63
40155;BME280;25875;48.202;16.334;2023-01-26T02:57:59;99635.09;;;0.78;79.76
40155;BME280;25875;48.202;16.334;2023-01-26T03:00:29;99637.72;;;0.76;79.81
40155;BME280;25875;48.202;16.334;2023-01-26T03:02:58;99565.25;;;0.26;79.66
40155;BME280;25875;48.202;16.334;2023-01-26T03:05:26;99631.78;;;0.64;79.70
40155;BME280;25875;48.202;16.334;2023-01-26T03:07:53;99650.97;;;0.58;79.71
40155;BME280;25875;48.202;16.334;2023-01-26T03:10:20;99635.38;;;0.52;79.81
40155;BME280;25875;48.202;16.334;2023-01-26T03:12:48;99624.91;;;0.55;79.86
40155;BME280;25875;48.202;16.334;2023-01-26T03:15:15;99624.91;;;0.55;79.94
40155;BME280;25875;48.202;16.334;2023-01-26T03:18:10;99559.31;;;0.10;79.57
40155;BME280;25875;48.202;16.334;2023-01-26T03:20:54;99625.84;;;0.49;79.71
40155;BME280;25875;48.202;16.334;2023-01-26T03:23:39;99624.97;;;0.49;79.83
40155;BME280;25875;48.202;16.334;2023-01-26T03:26:22;99628.44;;;0.51;79.91
40155;BME280;25875;48.202;16.334;2023-01-26T03:29:06;99562.78;;;0.12;79.72
40155;BME280;25875;48.202;16.334;2023-01-26T03:31:33;99624.84;;;0.59;79.81
40155;BME280;25875;48.202;16.334;2023-01-26T03:34:02;99621.34;;;0.62;79.70
40155;BME280;25875;48.202;16.334;2023-01-26T03:36:29;99614.38;;;0.64;79.76
40155;BME280;25875;48.202;16.334;2023-01-26T03:38:57;99615.22;;;0.66;79.69
40155;BME280;25875;48.202;16.334;2023-01-26T03:41:24;99612.56;;;0.69;79.46
40155;BME280;25875;48.202;16.334;2023-01-26T03:44:08;99606.50;;;0.69;79.55
40155;BME280;25875;48.202;16.334;2023-01-26T03:46:53;99618.66;;;0.70;79.45
40155;BME280;25875;48.202;16.334;2023-01-26T03:49:38;99612.59;;;0.68;79.59
40155;BME280;25875;48.202;16.334;2023-01-26T03:52:22;99611.69;;;0.70;79.53
40155;BME280;25875;48.202;16.334;2023-01-26T03:55:07;99606.47;;;0.72;79.66
40155;BME280;25875;48.202;16.334;2023-01-26T03:57:51;99598.69;;;0.67;80.28
40155;BME280;25875;48.202;16.334;2023-01-26T04:00:18;99603.88;;;0.70;79.70
40155;BME280;25875;48.202;16.334;2023-01-26T04:02:45;99597.75;;;0.73;79.64
40155;BME280;25875;48.202;16.334;2023-01-26T04:05:31;99592.53;;;0.73;79.52
40155;BME280;25875;48.202;16.334;2023-01-26T04:08:15;99589.00;;;0.77;79.53
40155;BME280;25875;48.202;16.334;2023-01-26T04:10:49;99592.47;;;0.77;79.49
40155;BME280;25875;48.202;16.334;2023-01-26T04:13:17;99579.47;;;0.74;79.46
40155;BME280;25875;48.202;16.334;2023-01-26T04:16:01;99582.13;;;0.71;79.57
40155;BME280;25875;48.202;16.334;2023-01-26T04:18:45;99583.03;;;0.69;79.69
40155;BME280;25875;48.202;16.334;2023-01-26T04:21:32;99583.88;;;0.71;79.84
40155;BME280;25875;48.202;16.334;2023-01-26T04:24:01;99574.28;;;0.71;79.84
40155;BME280;25875;48.202;16.334;2023-01-26T04:26:34;99573.41;;;0.74;79.99
40155;BME280;25875;48.202;16.334;2023-01-26T04:29:02;99565.56;;;0.74;79.87
40155;BME280;25875;48.202;16.334;2023-01-26T04:31:29;99574.25;;;0.74;79.96
40155;BME280;25875;48.202;16.334;2023-01-26T04:33:55;99569.00;;;0.77;79.94
40155;BME280;25875;48.202;16.334;2023-01-26T04:36:22;99568.97;;;0.80;79.81
40155;BME280;25875;48.202;16.334;2023-01-26T04:38:51;99571.59;;;0.79;79.84
40155;BME280;25875;48.202;16.334;2023-01-26T04:41:18;99466.31;;;0.15;79.85
40155;BME280;25875;48.202;16.334;2023-01-26T04:43:45;99568.16;;;0.75;79.81
40155;BME280;25875;48.202;16.334;2023-01-26T04:46:12;99566.41;;;0.76;79.91
40155;BME280;25875;48.202;16.334;2023-01-26T04:48:39;99559.47;;;0.75;80.21
40155;BME280;25875;48.202;16.334;2023-01-26T04:51:10;99496.53;;;0.30;80.29
40155;BME280;25875;48.202;16.334;2023-01-26T04:53:37;99552.47;;;0.78;80.06
40155;BME280;25875;48.202;16.334;2023-01-26T04:56:07;99555.06;;;0.78;79.86
40155;BME280;25875;48.202;16.334;2023-01-26T04:58:34;99555.91;;;0.80;80.11
40155;BME280;25875;48.202;16.334;2023-01-26T05:01:01;99550.69;;;0.80;79.95
40155;BME280;25875;48.202;16.334;2023-01-26T05:03:28;99554.16;;;0.81;80.02
40155;BME280;25875;48.202;16.334;2023-01-26T05:05:55;99548.16;;;0.74;80.10
40155;BME280;25875;48.202;16.334;2023-01-26T05:08:21;99549.03;;;0.75;80.01
40155;BME280;25875;48.202;16.334;2023-01-26T05:10:48;99547.28;;;0.75;80.12
40155;BME280;25875;48.202;16.334;2023-01-26T05:13:18;99545.53;;;0.76;80.08
40155;BME280;25875;48.202;16.334;2023-01-26T05:15:45;99539.44;;;0.77;80.05
40155;BME280;25875;48.202;16.334;2023-01-26T05:18:12;99541.16;;;0.78;80.12
40155;BME280;25875;48.202;16.334;2023-01-26T05:20:39;99539.41;;;0.78;80.03
40155;BME280;25875;48.202;16.334;2023-01-26T05:23:06;99540.28;;;0.79;80.04
40155;BME280;25875;48.202;16.334;2023-01-26T05:25:33;99535.94;;;0.79;80.05
40155;BME280;25875;48.202;16.334;2023-01-26T05:28:00;99542.06;;;0.77;80.15
40155;BME280;25875;48.202;16.334;2023-01-26T05:30:28;99535.09;;;0.76;80.11
40155;BME280;25875;48.202;16.334;2023-01-26T05:32:59;99534.25;;;0.75;80.17
40155;BME280;25875;48.202;16.334;2023-01-26T05:35:26;99535.13;;;0.74;80.15
40155;BME280;25875;48.202;16.334;2023-01-26T05:37:53;99535.16;;;0.73;80.06
40155;BME280;25875;48.202;16.334;2023-01-26T05:40:21;99530.78;;;0.75;80.00
40155;BME280;25875;48.202;16.334;2023-01-26T05:42:48;99534.25;;;0.75;80.01
40155;BME280;25875;48.202;16.334;2023-01-26T05:45:15;99510.16;;;0.55;80.27
40155;BME280;25875;48.202;16.334;2023-01-26T05:47:43;99490.38;;;0.39;80.23
40155;BME280;25875;48.202;16.334;2023-01-26T05:50:11;99542.97;;;0.73;80.29
40155;BME280;25875;48.202;16.334;2023-01-26T05:52:38;99538.59;;;0.75;80.26
40155;BME280;25875;48.202;16.334;2023-01-26T05:55:06;99542.94;;;0.74;80.38
40155;BME280;25875;48.202;16.334;2023-01-26T05:57:32;99552.50;;;0.77;80.32
40155;BME280;25875;48.202;16.334;2023-01-26T06:00:01;99540.31;;;0.76;80.34
40155;BME280;25875;48.202;16.334;2023-01-26T06:02:27;99541.16;;;0.79;80.25
40155;BME280;25875;48.202;16.334;2023-01-26T06:04:56;99536.81;;;0.78;80.27
40155;BME280;25875;48.202;16.334;2023-01-26T06:07:22;99542.06;;;0.77;80.32
40155;BME280;25875;48.202;16.334;2023-01-26T06:09:50;99542.03;;;0.78;80.28
40155;BME280;25875;48.202;16.334;2023-01-26T06:12:19;99545.47;;;0.80;80.26
40155;BME280;25875;48.202;16.334;2023-01-26T06:14:46;99542.00;;;0.81;80.22
40155;BME280;25875;48.202;16.334;2023-01-26T06:17:15;99539.34;;;0.84;80.09
40155;BME280;25875;48.202;16.334;2023-01-26T06:19:42;99534.13;;;0.84;80.12
40155;BME280;25875;48.202;16.334;2023-01-26T06:22:12;99544.59;;;0.83;80.45
40155;BME280;25875;48.202;16.334;2023-01-26T06:24:39;99476.50;;;0.34;80.32
40155;BME280;25875;48.202;16.334;2023-01-26T06:27:11;99538.50;;;0.82;80.40
40155;BME280;25875;48.202;16.334;2023-01-26T06:29:38;99531.50;;;0.84;80.31
40155;BME280;25875;48.202;16.334;2023-01-26T06:32:05;99531.50;;;0.84;80.35
40155;BME280;25875;48.202;16.334;2023-01-26T06:34:32;99534.09;;;0.86;80.20
40155;BME280;25875;48.202;16.334;2023-01-26T06:36:59;99537.53;;;0.89;80.17
40155;BME280;25875;48.202;16.334;2023-01-26T06:39:28;99535.81;;;0.88;80.29
40155;BME280;25875;48.202;16.334;2023-01-26T06:41:54;99527.13;;;0.86;80.20
40155;BME280;25875;48.202;16.334;2023-01-26T06:44:21;99538.44;;;0.87;80.30
40155;BME280;25875;48.202;16.334;2023-01-26T06:46:48;99542.78;;;0.86;80.56
40155;BME280;25875;48.202;16.334;2023-01-26T06:49:15;99537.56;;;0.86;80.37
40155;BME280;25875;48.202;16.334;2023-01-26T06:51:51;99536.69;;;0.87;80.43
40155;BME280;25875;48.202;16.334;2023-01-26T06:54:19;99533.22;;;0.87;80.69
40155;BME280;25875;48.202;16.334;2023-01-26T06:56:48;99539.31;;;0.87;80.59
40155;BME280;25875;48.202;16.334;2023-01-26T06:59:15;99543.66;;;0.87;80.74
40155;BME280;25875;48.202;16.334;2023-01-26T07:01:44;99544.56;;;0.84;81.01
40155;BME280;25875;48.202;16.334;2023-01-26T07:04:13;99469.50;;;0.39;80.76
40155;BME280;25875;48.202;16.334;2023-01-26T07:06:40;99541.94;;;0.86;80.97
40155;BME280;25875;48.202;16.334;2023-01-26T07:09:08;99540.22;;;0.85;80.77
40155;BME280;25875;48.202;16.334;2023-01-26T07:11:35;99541.94;;;0.86;80.74
40155;BME280;25875;48.202;16.334;2023-01-26T07:14:03;99542.78;;;0.86;80.74
40155;BME280;25875;48.202;16.334;2023-01-26T07:16:30;99547.13;;;0.87;80.70
40155;BME280;25875;48.202;16.334;2023-01-26T07:18:57;99543.66;;;0.87;80.97
40155;BME280;25875;48.202;16.334;2023-01-26T07:21:24;99539.31;;;0.86;81.14
40155;BME280;25875;48.202;16.334;2023-01-26T07:23:50;99535.84;;;0.85;81.10
40155;BME280;25875;48.202;16.334;2023-01-26T07:26:19;99541.94;;;0.86;81.15
40155;BME280;25875;48.202;16.334;2023-01-26T07:28:46;99540.19;;;0.86;81.08
40155;BME280;25875;48.202;16.334;2023-01-26T07:31:15;99534.97;;;0.86;81.11
40155;BME280;25875;48.202;16.334;2023-01-26T07:33:42;99454.78;;;0.35;80.93
40155;BME280;25875;48.202;16.334;2023-01-26T07:36:09;99532.31;;;0.89;80.85
40155;BME280;25875;48.202;16.334;2023-01-26T07:38:36;99527.13;;;0.88;81.02
40155;BME280;25875;48.202;16.334;2023-01-26T07:41:06;99533.19;;;0.88;80.93
40155;BME280;25875;48.202;16.334;2023-01-26T07:43:34;99525.38;;;0.88;80.89
40155;BME280;25875;48.202;16.334;2023-01-26T07:46:01;99470.28;;;0.47;80.81
40155;BME280;25875;48.202;16.334;2023-01-26T07:48:29;99517.53;;;0.90;81.01
40155;BME280;25875;48.202;16.334;2023-01-26T07:51:00;99530.56;;;0.91;80.99
40155;BME280;25875;48.202;16.334;2023-01-26T07:53:28;99526.19;;;0.92;80.96
40155;BME280;25875;48.202;16.334;2023-01-26T07:56:05;99455.41;;;0.53;80.98
40155;BME280;25875;48.202;16.334;2023-01-26T07:58:32;99513.94;;;0.99;80.81
40155;BME280;25875;48.202;16.334;2023-01-26T08:01:08;99523.47;;;1.00;80.66
40155;BME280;25875;48.202;16.334;2023-01-26T08:03:37;99522.59;;;1.01;80.51
40155;BME280;25875;48.202;16.334;2023-01-26T08:06:05;99372.56;;;0.09;80.52
40155;BME280;25875;48.202;16.334;2023-01-26T08:08:33;99520.97;;;0.92;80.78
40155;BME280;25875;48.202;16.334;2023-01-26T08:11:00;99529.66;;;0.94;80.73
40155;BME280;25875;48.202;16.334;2023-01-26T08:13:28;99526.16;;;0.95;80.76
40155;BME280;25875;48.202;16.334;2023-01-26T08:15:59;99531.38;;;0.95;80.91
40155;BME280;25875;48.202;16.334;2023-01-26T08:18:27;99466.69;;;0.54;80.70
40155;BME280;25875;48.202;16.334;2023-01-26T08:20:56;99008.22;;;-2.07;80.42
40155;BME280;25875;48.202;16.334;2023-01-26T08:23:23;99527.84;;;0.98;80.77
40155;BME280;25875;48.202;16.334;2023-01-26T08:25:49;99518.28;;;0.98;80.89
40155;BME280;25875;48.202;16.334;2023-01-26T08:28:16;99530.47;;;0.98;80.87
40155;BME280;25875;48.202;16.334;2023-01-26T08:30:43;99520.91;;;0.98;80.83
40155;BME280;25875;48.202;16.334;2023-01-26T08:33:10;99528.69;;;1.00;80.79
40155;BME280;25875;48.202;16.334;2023-01-26T08:35:37;99522.63;;;0.99;80.90
40155;BME280;25875;48.202;16.334;2023-01-26T08:38:05;99427.81;;;0.36;80.79
40155;BME280;25875;48.202;16.334;2023-01-26T08:40:31;99525.28;;;0.96;80.77
40155;BME280;25875;48.202;16.334;2023-01-26T08:42:59;99521.84;;;0.92;80.81
40155;BME280;25875;48.202;16.334;2023-01-26T08:45:27;99513.16;;;0.90;80.78
40155;BME280;25875;48.202;16.334;2023-01-26T08:47:54;99511.47;;;0.86;81.05
40155;BME280;25875;48.202;16.334;2023-01-26T08:50:21;99497.63;;;0.81;81.21
40155;BME280;25875;48.202;16.334;2023-01-26T08:52:48;99512.31;;;0.88;81.30
40155;BME280;25875;48.202;16.334;2023-01-26T08:55:16;99517.50;;;0.91;80.96
40155;BME280;25875;48.202;16.334;2023-01-26T08:57:42;99515.75;;;0.93;80.94
40155;BME280;25875;48.202;16.334;2023-01-26T09:00:13;99511.38;;;0.94;80.93
40155;BME280;25875;48.202;16.334;2023-01-26T09:02:39;99513.16;;;0.92;80.90
40155;BME280;25875;48.202;16.334;2023-01-26T09:05:07;99512.28;;;0.91;80.98
40155;BME280;25875;48.202;16.334;2023-01-26T09:07:34;99510.53;;;0.92;80.88
40155;BME280;25875;48.202;16.334;2023-01-26T09:10:01;99507.06;;;0.91;81.16
40155;BME280;25875;48.202;16.334;2023-01-26T09:12:29;99511.41;;;0.92;80.97
40155;BME280;25875;48.202;16.334;2023-01-26T09:14:56;99519.22;;;0.92;81.30
40155;BME280;25875;48.202;16.334;2023-01-26T09:17:23;99480.38;;;0.71;81.26
40155;BME280;25875;48.202;16.334;2023-01-26T09:19:49;99512.28;;;0.91;81.29
40155;BME280;25875;48.202;16.334;2023-01-26T09:22:16;99519.28;;;0.89;81.05
40155;BME280;25875;48.202;16.334;2023-01-26T09:24:43;99514.06;;;0.89;81.13
40155;BME280;25875;48.202;16.334;2023-01-26T09:27:10;99485.53;;;0.76;80.77
40155;BME280;25875;48.202;16.334;2023-01-26T09:29:38;99514.88;;;0.93;80.79
40155;BME280;25875;48.202;16.334;2023-01-26T09:32:04;99515.75;;;0.92;80.86
40155;BME280;25875;48.202;16.334;2023-01-26T09:34:32;99517.53;;;0.90;80.77
40155;BME280;25875;48.202;16.334;2023-01-26T09:36:59;99493.44;;;0.71;80.73
40155;BME280;25875;48.202;16.334;2023-01-26T09:39:26;99509.72;;;0.88;80.70
40155;BME280;25875;48.202;16.334;2023-01-26T09:42:09;99512.31;;;0.88;80.82
40155;BME280;25875;48.202;16.334;2023-01-26T09:44:47;99508.84;;;0.89;80.76
40155;BME280;25875;48.202;16.334;2023-01-26T09:47:23;99507.09;;;0.90;80.74
40155;BME280;25875;48.202;16.334;2023-01-26T09:49:57;99501.88;;;0.90;80.82
40155;BME280;25875;48.202;16.334;2023-01-26T09:52:27;99496.59;;;0.93;81.10
40155;BME280;25875;48.202;16.334;2023-01-26T09:54:58;99500.91;;;0.96;80.69
40155;BME280;25875;48.202;16.334;2023-01-26T09:57:28;99498.28;;;0.99;80.54
40155;BME280;25875;48.202;16.334;2023-01-26T10:00:06;99500.00;;;1.00;80.66
40155;BME280;25875;48.202;16.334;2023-01-26T10:02:48;99498.19;;;1.03;80.45
40155;BME280;25875;48.202;16.334;2023-01-26T10:05:22;99492.97;;;1.03;80.21
40155;BME280;25875;48.202;16.334;2023-01-26T10:07:51;99495.56;;;1.05;80.07
40155;BME280;25875;48.202;16.334;2023-01-26T10:10:22;99508.63;;;1.03;80.25
40155;BME280;25875;48.202;16.334;2023-01-26T10:12:52;99503.41;;;1.05;80.16
40155;BME280;25875;48.202;16.334;2023-01-26T10:15:28;99487.75;;;1.05;80.22
40155;BME280;25875;48.202;16.334;2023-01-26T10:17:57;99452.34;;;0.85;79.92
40155;BME280;25875;48.202;16.334;2023-01-26T10:20:30;99482.50;;;1.05;80.14
40155;BME280;25875;48.202;16.334;2023-01-26T10:23:00;99484.25;;;1.04;80.24
40155;BME280;25875;48.202;16.334;2023-01-26T10:25:34;99406.63;;;0.60;80.04
40155;BME280;25875;48.202;16.334;2023-01-26T10:28:10;99479.94;;;1.02;80.11
40155;BME280;25875;48.202;16.334;2023-01-26T10:30:40;99476.50;;;1.00;80.00
40155;BME280;25875;48.202;16.334;2023-01-26T10:33:13;99469.53;;;1.00;79.70
40155;BME280;25875;48.202;16.334;2023-01-26T10:35:40;99476.50;;;1.00;79.93
40155;BME280;25875;48.202;16.334;2023-01-26T10:38:25;99466.09;;;0.98;79.85
40155;BME280;25875;48.202;16.334;2023-01-26T10:40:52;99462.63;;;0.96;79.89
40155;BME280;25875;48.202;16.334;2023-01-26T10:43:19;99395.56;;;0.44;79.91
40155;BME280;25875;48.202;16.334;2023-01-26T10:45:47;99465.19;;;0.99;80.25
40155;BME280;25875;48.202;16.334;2023-01-26T10:48:17;99454.00;;;0.92;80.36
40155;BME280;25875;48.202;16.334;2023-01-26T10:50:45;99447.88;;;0.93;80.29
40155;BME280;25875;48.202;16.334;2023-01-26T10:53:15;99448.75;;;0.94;80.31
40155;BME280;25875;48.202;16.334;2023-01-26T10:55:58;99447.84;;;0.97;80.47
40155;BME280;25875;48.202;16.334;2023-01-26T10:58:41;99439.16;;;0.96;80.44
40155;BME280;25875;48.202;16.334;2023-01-26T11:01:11;99439.13;;;0.98;80.23
40155;BME280;25875;48.202;16.334;2023-01-26T11:03:40;99429.56;;;0.98;80.12
40155;BME280;25875;48.202;16.334;2023-01-26T11:06:13;99439.09;;;0.99;79.90
40155;BME280;25875;48.202;16.334;2023-01-26T11:08:40;99433.84;;;1.02;79.90
40155;BME280;25875;48.202;16.334;2023-01-26T11:11:24;99431.22;;;1.02;79.70
40155;BME280;25875;48.202;16.334;2023-01-26T11:14:09;99434.69;;;1.03;79.71
40155;BME280;25875;48.202;16.334;2023-01-26T11:16:39;99435.59;;;1.00;79.47
40155;BME280;25875;48.202;16.334;2023-01-26T11:19:12;99433.84;;;1.01;79.33
40155;BME280;25875;48.202;16.334;2023-01-26T11:21:40;99422.53;;;1.02;79.33
40155;BME280;25875;48.202;16.334;2023-01-26T11:24:14;99415.53;;;1.04;79.43
40155;BME280;25875;48.202;16.334;2023-01-26T11:29:58;99407.69;;;1.05;78.91
40155;BME280;25875;48.202;16.334;2023-01-26T11:32:34;99403.38;;;1.03;78.82
40155;BME280;25875;48.202;16.334;2023-01-26T11:35:11;99402.53;;;1.02;78.67
40155;BME280;25875;48.202;16.334;2023-01-26T11:37:42;99401.66;;;1.02;78.22
40155;BME280;25875;48.202;16.334;2023-01-26T11:40:20;99392.97;;;1.01;78.13
40155;BME280;25875;48.202;16.334;2023-01-26T11:42:59;99393.81;;;1.02;78.26
40155;BME280;25875;48.202;16.334;2023-01-26T11:45:35;99392.06;;;1.02;78.23
40155;BME280;25875;48.202;16.334;2023-01-26T11:48:16;99389.50;;;1.01;77.96
40155;BME280;25875;48.202;16.334;2023-01-26T11:50:49;99378.19;;;1.00;78.11
40155;BME280;25875;48.202;16.334;2023-01-26T11:53:34;99377.31;;;1.01;77.89
40155;BME280;25875;48.202;16.334;2023-01-26T11:56:15;99364.25;;;1.01;77.97
40155;BME280;25875;48.202;16.334;2023-01-26T11:58:48;99367.69;;;1.03;78.08
40155;BME280;25875;48.202;16.334;2023-01-26T12:01:22;99360.69;;;1.07;78.09
40155;BME280;25875;48.202;16.334;2023-01-26T12:03:55;99368.47;;;1.10;78.19
40155;BME280;25875;48.202;16.334;2023-01-26T12:06:28;98871.88;;;-1.74;77.92
40155;BME280;25875;48.202;16.334;2023-01-26T12:08:59;99330.31;;;1.03;77.75
40155;BME280;25875;48.202;16.334;2023-01-26T12:11:30;99354.44;;;1.15;77.56
40155;BME280;25875;48.202;16.334;2023-01-26T12:14:06;99355.31;;;1.16;77.89
40155;BME280;25875;48.202;16.334;2023-01-26T12:16:43;99266.84;;;0.50;78.16
40155;BME280;25875;48.202;16.334;2023-01-26T12:19:27;99349.16;;;1.20;78.34
40155;BME280;25875;48.202;16.334;2023-01-26T12:22:05;99340.41;;;1.21;78.29
40155;BME280;25875;48.202;16.334;2023-01-26T12:24:40;99338.63;;;1.24;78.25
40155;BME280;25875;48.202;16.334;2023-01-26T12:27:15;99338.63;;;1.24;78.16
40155;BME280;25875;48.202;16.334;2023-01-26T12:29:49;99340.34;;;1.25;78.35
40155;BME280;25875;48.202;16.334;2023-01-26T12:32:17;99250.81;;;0.73;78.56
40155;BME280;25875;48.202;16.334;2023-01-26T12:34:45;99331.66;;;1.25;78.49
40155;BME280;25875;48.202;16.334;2023-01-26T12:37:34;99330.72;;;1.28;78.56
40155;BME280;25875;48.202;16.334;2023-01-26T12:40:14;99306.63;;;1.13;78.60
40155;BME280;25875;48.202;16.334;2023-01-26T12:42:49;99322.81;;;1.32;78.60
40155;BME280;25875;48.202;16.334;2023-01-26T12:45:24;99321.06;;;1.33;78.55
40155;BME280;25875;48.202;16.334;2023-01-26T12:47:55;99319.28;;;1.35;78.65
40155;BME280;25875;48.202;16.334;2023-01-26T12:50:28;99313.16;;;1.37;78.60
40155;BME280;25875;48.202;16.334;2023-01-26T12:53:03;99319.22;;;1.38;78.63
40155;BME280;25875;48.202;16.334;2023-01-26T12:55:38;99316.63;;;1.38;78.66
40155;BME280;25875;48.202;16.334;2023-01-26T12:58:11;99313.97;;;1.39;78.59
40155;BME280;25875;48.202;16.334;2023-01-26T13:00:50;99313.97;;;1.39;78.54
40155;BME280;25875;48.202;16.334;2023-01-26T13:03:20;99314.84;;;1.40;78.51
40155;BME280;25875;48.202;16.334;2023-01-26T13:05:58;99319.16;;;1.41;78.48
40155;BME280;25875;48.202;16.334;2023-01-26T13:08:48;99308.69;;;1.42;78.42
40155;BME280;25875;48.202;16.334;2023-01-26T13:17:57;99306.13;;;1.41;78.59
40155;BME280;25875;48.202;16.334;2023-01-26T13:20:27;99315.69;;;1.40;78.54
40155;BME280;25875;48.202;16.334;2023-01-26T13:22:59;99306.06;;;1.44;78.59
40155;BME280;25875;48.202;16.334;2023-01-26T13:25:29;99311.22;;;1.47;78.69
40155;BME280;25875;48.202;16.334;2023-01-26T13:27:59;99289.69;;;1.34;78.78